sensor_id;sensor_type;location;lat;lon;timestamp;temperature;humidity
6008;DHT22;3032;49.484;11.112;2023-05-14T00:00:17;10.90;99.90
6008;DHT22;3032;49.484;11.112;2023-05-14T00:02:43;10.90;99.90
6008;DHT22;3032;49.484;11.112;2023-05-14T00:05:08;10.90;99.90
6008;DHT22;3032;49.484;11.112;2023-05-14T00:07:34;10.90;99.90
6008;DHT22;3032;49.484;11.112;2023-05-14T00:10:00;10.50;99.90
6008;DHT22;3032;49.484;11.112;2023-05-14T00:12:25;10.20;99.90
6008;DHT22;3032;49.484;11.112;2023-05-14T00:14:52;10.10;99.90
6008;DHT22;3032;49.484;11.112;2023-05-14T00:17:19;10.20;99.90
6008;DHT22;3032;49.484;11.112;2023-05-14T00:19:44;10.40;99.90
6008;DHT22;3032;49.484;11.112;2023-05-14T00:22:10;10.40;99.90
6008;DHT22;3032;49.484;11.112;2023-05-14T00:24:36;10.40;99.90
6008;DHT22;3032;49.484;11.112;2023-05-14T00:27:02;10.30;99.90
6008;DHT22;3032;49.484;11.112;2023-05-14T00:29:28;10.20;99.90
6008;DHT22;3032;49.484;11.112;2023-05-14T00:31:55;10.20;99.90
6008;DHT22;3032;49.484;11.112;2023-05-14T00:34:20;10.00;99.90
6008;DHT22;3032;49.484;11.112;2023-05-14T00:36:46;9.70;99.90
6008;DHT22;3032;49.484;11.112;2023-05-14T00:39:12;9.70;99.90
6008;DHT22;3032;49.484;11.112;2023-05-14T00:41:38;9.70;99.90
6008;DHT22;3032;49.484;11.112;2023-05-14T00:44:04;9.70;99.90
6008;DHT22;3032;49.484;11.112;2023-05-14T00:46:29;9.70;99.90
6008;DHT22;3032;49.484;11.112;2023-05-14T00:48:56;9.80;99.90
6008;DHT22;3032;49.484;11.112;2023-05-14T00:51:22;10.00;99.90
6008;DHT22;3032;49.484;11.112;2023-05-14T00:53:49;10.00;99.90
6008;DHT22;3032;49.484;11.112;2023-05-14T00:56:15;10.00;99.90
6008;DHT22;3032;49.484;11.112;2023-05-14T00:58:41;10.00;99.90
6008;DHT22;3032;49.484;11.112;2023-05-14T01:01:08;10.10;99.90
6008;DHT22;3032;49.484;11.112;2023-05-14T01:03:34;10.10;99.90
6008;DHT22;3032;49.484;11.112;2023-05-14T01:06:17;10.30;99.90
6008;DHT22;3032;49.484;11.112;2023-05-14T01:09:01;10.50;99.90
6008;DHT22;3032;49.484;11.112;2023-05-14T01:14:46;10.90;99.90
6008;DHT22;3032;49.484;11.112;2023-05-14T01:17:15;10.90;99.90
6008;DHT22;3032;49.484;11.112;2023-05-14T01:19:46;11.00;99.90
6008;DHT22;3032;49.484;11.112;2023-05-14T01:22:12;11.00;99.90
6008;DHT22;3032;49.484;11.112;2023-05-14T01:24:38;11.10;99.90
6008;DHT22;3032;49.484;11.112;2023-05-14T01:29:33;11.10;99.90
6008;DHT22;3032;49.484;11.112;2023-05-14T01:31:59;11.20;99.90
6008;DHT22;3032;49.484;11.112;2023-05-14T01:34:29;11.20;99.90
6008;DHT22;3032;49.484;11.112;2023-05-14T01:36:56;11.10;99.90
6008;DHT22;3032;49.484;11.112;2023-05-14T01:39:24;11.30;99.90
6008;DHT22;3032;49.484;11.112;2023-05-14T01:41:50;11.40;99.90
6008;DHT22;3032;49.484;11.112;2023-05-14T01:44:16;11.50;99.90
6008;DHT22;3032;49.484;11.112;2023-05-14T01:46:42;11.60;99.90
6008;DHT22;3032;49.484;11.112;2023-05-14T01:49:08;11.60;99.90
6008;DHT22;3032;49.484;11.112;2023-05-14T01:51:33;11.60;99.90
6008;DHT22;3032;49.484;11.112;2023-05-14T01:53:59;11.40;99.90
6008;DHT22;3032;49.484;11.112;2023-05-14T01:56:25;11.50;99.90
6008;DHT22;3032;49.484;11.112;2023-05-14T01:58:50;11.70;99.90
6008;DHT22;3032;49.484;11.112;2023-05-14T02:01:16;11.70;99.90
6008;DHT22;3032;49.484;11.112;2023-05-14T02:03:41;11.70;99.90
6008;DHT22;3032;49.484;11.112;2023-05-14T02:06:08;11.80;99.90
6008;DHT22;3032;49.484;11.112;2023-05-14T02:08:34;11.90;99.90
6008;DHT22;3032;49.484;11.112;2023-05-14T02:11:00;12.00;99.90
6008;DHT22;3032;49.484;11.112;2023-05-14T02:13:26;12.00;99.90
6008;DHT22;3032;49.484;11.112;2023-05-14T02:15:52;11.50;99.90
6008;DHT22;3032;49.484;11.112;2023-05-14T02:18:17;11.10;99.90
6008;DHT22;3032;49.484;11.112;2023-05-14T02:20:43;10.90;99.90
6008;DHT22;3032;49.484;11.112;2023-05-14T02:23:09;10.80;99.90
6008;DHT22;3032;49.484;11.112;2023-05-14T02:25:36;10.70;99.90
6008;DHT22;3032;49.484;11.112;2023-05-14T02:28:02;10.50;99.90
6008;DHT22;3032;49.484;11.112;2023-05-14T02:30:28;10.50;99.90
6008;DHT22;3032;49.484;11.112;2023-05-14T02:32:56;10.60;99.90
6008;DHT22;3032;49.484;11.112;2023-05-14T02:35:25;10.60;99.90
6008;DHT22;3032;49.484;11.112;2023-05-14T02:37:50;10.60;99.90
6008;DHT22;3032;49.484;11.112;2023-05-14T02:40:16;10.70;99.90
6008;DHT22;3032;49.484;11.112;2023-05-14T02:42:42;10.80;99.90
6008;DHT22;3032;49.484;11.112;2023-05-14T02:45:07;10.80;99.90
6008;DHT22;3032;49.484;11.112;2023-05-14T02:47:33;10.80;99.90
6008;DHT22;3032;49.484;11.112;2023-05-14T02:49:59;10.80;99.90
6008;DHT22;3032;49.484;11.112;2023-05-14T02:52:24;10.70;99.90
6008;DHT22;3032;49.484;11.112;2023-05-14T02:54:50;10.80;99.90
6008;DHT22;3032;49.484;11.112;2023-05-14T02:57:15;11.00;99.90
6008;DHT22;3032;49.484;11.112;2023-05-14T02:59:41;11.20;99.90
6008;DHT22;3032;49.484;11.112;2023-05-14T03:02:06;11.30;99.90
6008;DHT22;3032;49.484;11.112;2023-05-14T03:04:32;11.80;99.90
6008;DHT22;3032;49.484;11.112;2023-05-14T03:06:58;11.60;99.90
6008;DHT22;3032;49.484;11.112;2023-05-14T03:09:23;11.90;99.90
6008;DHT22;3032;49.484;11.112;2023-05-14T03:11:49;12.10;99.90
6008;DHT22;3032;49.484;11.112;2023-05-14T03:14:15;12.20;99.90
6008;DHT22;3032;49.484;11.112;2023-05-14T03:16:40;12.30;99.90
6008;DHT22;3032;49.484;11.112;2023-05-14T03:19:06;12.00;99.90
6008;DHT22;3032;49.484;11.112;2023-05-14T03:21:32;11.70;99.90
6008;DHT22;3032;49.484;11.112;2023-05-14T03:23:58;11.70;99.90
6008;DHT22;3032;49.484;11.112;2023-05-14T03:26:24;11.80;99.90
6008;DHT22;3032;49.484;11.112;2023-05-14T03:28:50;12.10;99.90
6008;DHT22;3032;49.484;11.112;2023-05-14T03:31:16;11.90;99.90
6008;DHT22;3032;49.484;11.112;2023-05-14T03:33:41;11.80;99.90
6008;DHT22;3032;49.484;11.112;2023-05-14T03:36:07;11.70;99.90
6008;DHT22;3032;49.484;11.112;2023-05-14T03:38:33;11.50;99.90
6008;DHT22;3032;49.484;11.112;2023-05-14T03:40:58;11.20;99.90
6008;DHT22;3032;49.484;11.112;2023-05-14T03:43:24;11.00;99.90
6008;DHT22;3032;49.484;11.112;2023-05-14T03:45:50;11.00;99.90
6008;DHT22;3032;49.484;11.112;2023-05-14T03:48:17;11.20;99.90
6008;DHT22;3032;49.484;11.112;2023-05-14T03:50:43;10.90;99.90
6008;DHT22;3032;49.484;11.112;2023-05-14T03:53:09;10.80;99.90
6008;DHT22;3032;49.484;11.112;2023-05-14T03:55:34;10.90;99.90
6008;DHT22;3032;49.484;11.112;2023-05-14T03:58:01;10.80;99.90
6008;DHT22;3032;49.484;11.112;2023-05-14T04:00:27;10.80;99.90
6008;DHT22;3032;49.484;11.112;2023-05-14T04:02:55;10.90;99.90
6008;DHT22;3032;49.484;11.112;2023-05-14T04:05:20;10.90;99.90
6008;DHT22;3032;49.484;11.112;2023-05-14T04:07:47;10.80;99.90
6008;DHT22;3032;49.484;11.112;2023-05-14T04:10:12;10.90;99.90
6008;DHT22;3032;49.484;11.112;2023-05-14T04:12:38;11.20;99.90
6008;DHT22;3032;49.484;11.112;2023-05-14T04:15:05;11.30;99.90
6008;DHT22;3032;49.484;11.112;2023-05-14T04:17:31;11.60;99.90
6008;DHT22;3032;49.484;11.112;2023-05-14T04:19:57;11.60;99.90
6008;DHT22;3032;49.484;11.112;2023-05-14T04:22:25;11.70;99.90
6008;DHT22;3032;49.484;11.112;2023-05-14T04:24:50;12.00;99.90
6008;DHT22;3032;49.484;11.112;2023-05-14T04:27:21;12.10;99.90
6008;DHT22;3032;49.484;11.112;2023-05-14T04:29:47;12.00;99.90
6008;DHT22;3032;49.484;11.112;2023-05-14T04:32:13;12.20;99.90
6008;DHT22;3032;49.484;11.112;2023-05-14T04:34:39;12.20;99.90
6008;DHT22;3032;49.484;11.112;2023-05-14T04:37:05;12.30;99.90
6008;DHT22;3032;49.484;11.112;2023-05-14T04:39:31;12.30;99.90
6008;DHT22;3032;49.484;11.112;2023-05-14T04:41:57;12.30;99.90
6008;DHT22;3032;49.484;11.112;2023-05-14T04:44:23;12.50;99.90
6008;DHT22;3032;49.484;11.112;2023-05-14T04:46:48;12.20;99.90
6008;DHT22;3032;49.484;11.112;2023-05-14T04:49:14;12.20;99.90
6008;DHT22;3032;49.484;11.112;2023-05-14T04:51:40;12.30;99.90
6008;DHT22;3032;49.484;11.112;2023-05-14T04:54:05;12.70;99.90
6008;DHT22;3032;49.484;11.112;2023-05-14T04:56:31;12.10;99.90
6008;DHT22;3032;49.484;11.112;2023-05-14T04:58:56;12.20;99.90
6008;DHT22;3032;49.484;11.112;2023-05-14T05:01:22;12.40;99.90
6008;DHT22;3032;49.484;11.112;2023-05-14T05:03:47;12.40;99.90
6008;DHT22;3032;49.484;11.112;2023-05-14T05:06:13;12.50;99.90
6008;DHT22;3032;49.484;11.112;2023-05-14T05:08:39;12.60;99.90
6008;DHT22;3032;49.484;11.112;2023-05-14T05:11:05;13.00;99.90
6008;DHT22;3032;49.484;11.112;2023-05-14T05:13:30;13.30;99.90
6008;DHT22;3032;49.484;11.112;2023-05-14T05:15:56;13.30;99.90
6008;DHT22;3032;49.484;11.112;2023-05-14T05:18:22;13.70;99.90
6008;DHT22;3032;49.484;11.112;2023-05-14T05:20:47;13.90;99.90
6008;DHT22;3032;49.484;11.112;2023-05-14T05:23:13;14.30;99.90
6008;DHT22;3032;49.484;11.112;2023-05-14T05:25:39;14.40;99.90
6008;DHT22;3032;49.484;11.112;2023-05-14T05:28:04;15.00;99.90
6008;DHT22;3032;49.484;11.112;2023-05-14T05:30:30;16.20;99.90
6008;DHT22;3032;49.484;11.112;2023-05-14T05:32:55;17.90;99.90
6008;DHT22;3032;49.484;11.112;2023-05-14T05:35:21;18.80;99.90
6008;DHT22;3032;49.484;11.112;2023-05-14T05:37:47;19.50;99.90
6008;DHT22;3032;49.484;11.112;2023-05-14T05:40:13;20.50;99.90
6008;DHT22;3032;49.484;11.112;2023-05-14T05:42:39;21.20;99.90
6008;DHT22;3032;49.484;11.112;2023-05-14T05:45:05;21.10;99.90
6008;DHT22;3032;49.484;11.112;2023-05-14T05:47:31;22.80;99.90
6008;DHT22;3032;49.484;11.112;2023-05-14T05:49:57;23.00;98.40
6008;DHT22;3032;49.484;11.112;2023-05-14T05:52:22;21.50;99.90
6008;DHT22;3032;49.484;11.112;2023-05-14T05:54:48;20.80;99.90
6008;DHT22;3032;49.484;11.112;2023-05-14T05:57:13;20.10;99.90
6008;DHT22;3032;49.484;11.112;2023-05-14T05:59:39;20.50;99.90
6008;DHT22;3032;49.484;11.112;2023-05-14T06:02:05;19.20;99.90
6008;DHT22;3032;49.484;11.112;2023-05-14T06:04:31;17.70;99.90
6008;DHT22;3032;49.484;11.112;2023-05-14T06:06:56;16.40;99.90
6008;DHT22;3032;49.484;11.112;2023-05-14T06:09:22;15.90;99.90
6008;DHT22;3032;49.484;11.112;2023-05-14T06:11:47;15.90;99.90
6008;DHT22;3032;49.484;11.112;2023-05-14T06:14:13;15.50;99.90
6008;DHT22;3032;49.484;11.112;2023-05-14T06:16:38;15.10;99.90
6008;DHT22;3032;49.484;11.112;2023-05-14T06:19:04;15.60;99.90
6008;DHT22;3032;49.484;11.112;2023-05-14T06:21:30;16.00;99.90
6008;DHT22;3032;49.484;11.112;2023-05-14T06:23:56;15.80;99.90
6008;DHT22;3032;49.484;11.112;2023-05-14T06:26:21;15.60;99.90
6008;DHT22;3032;49.484;11.112;2023-05-14T06:28:47;15.00;99.90
6008;DHT22;3032;49.484;11.112;2023-05-14T06:31:13;15.40;99.90
6008;DHT22;3032;49.484;11.112;2023-05-14T06:33:39;15.20;99.90
6008;DHT22;3032;49.484;11.112;2023-05-14T06:36:05;15.30;99.90
6008;DHT22;3032;49.484;11.112;2023-05-14T06:38:32;15.20;99.90
6008;DHT22;3032;49.484;11.112;2023-05-14T06:40:57;14.70;99.90
6008;DHT22;3032;49.484;11.112;2023-05-14T06:43:23;14.80;99.90
6008;DHT22;3032;49.484;11.112;2023-05-14T06:45:52;14.50;99.90
6008;DHT22;3032;49.484;11.112;2023-05-14T06:48:18;14.30;99.90
6008;DHT22;3032;49.484;11.112;2023-05-14T06:50:45;14.00;99.90
6008;DHT22;3032;49.484;11.112;2023-05-14T06:53:11;14.00;99.90
6008;DHT22;3032;49.484;11.112;2023-05-14T06:55:36;14.50;99.90
6008;DHT22;3032;49.484;11.112;2023-05-14T06:58:05;14.10;99.90
6008;DHT22;3032;49.484;11.112;2023-05-14T07:00:30;14.30;99.90
6008;DHT22;3032;49.484;11.112;2023-05-14T07:02:56;14.30;99.90
6008;DHT22;3032;49.484;11.112;2023-05-14T07:05:21;14.40;99.90
6008;DHT22;3032;49.484;11.112;2023-05-14T07:07:47;14.40;99.90
6008;DHT22;3032;49.484;11.112;2023-05-14T07:10:12;14.40;99.90
6008;DHT22;3032;49.484;11.112;2023-05-14T07:12:38;14.80;99.90
6008;DHT22;3032;49.484;11.112;2023-05-14T07:15:04;15.40;99.90
6008;DHT22;3032;49.484;11.112;2023-05-14T07:17:30;16.30;99.90
6008;DHT22;3032;49.484;11.112;2023-05-14T07:19:55;16.60;99.90
6008;DHT22;3032;49.484;11.112;2023-05-14T07:22:21;17.40;99.90
6008;DHT22;3032;49.484;11.112;2023-05-14T07:24:47;17.90;99.90
6008;DHT22;3032;49.484;11.112;2023-05-14T07:27:13;18.70;99.90
6008;DHT22;3032;49.484;11.112;2023-05-14T07:29:39;18.60;99.90
6008;DHT22;3032;49.484;11.112;2023-05-14T07:32:04;18.30;99.90
6008;DHT22;3032;49.484;11.112;2023-05-14T07:34:30;17.90;99.90
6008;DHT22;3032;49.484;11.112;2023-05-14T07:36:55;17.90;99.90
6008;DHT22;3032;49.484;11.112;2023-05-14T07:39:21;17.90;99.90
6008;DHT22;3032;49.484;11.112;2023-05-14T07:41:46;17.50;99.90
6008;DHT22;3032;49.484;11.112;2023-05-14T07:44:12;16.60;99.90
6008;DHT22;3032;49.484;11.112;2023-05-14T07:46:38;16.60;99.90
6008;DHT22;3032;49.484;11.112;2023-05-14T07:49:03;16.10;99.90
6008;DHT22;3032;49.484;11.112;2023-05-14T07:51:29;16.00;99.90
6008;DHT22;3032;49.484;11.112;2023-05-14T07:53:56;15.70;99.90
6008;DHT22;3032;49.484;11.112;2023-05-14T07:56:22;15.70;99.90
6008;DHT22;3032;49.484;11.112;2023-05-14T07:58:47;15.80;99.90
6008;DHT22;3032;49.484;11.112;2023-05-14T08:01:13;15.90;99.90
6008;DHT22;3032;49.484;11.112;2023-05-14T08:03:38;16.00;99.90
6008;DHT22;3032;49.484;11.112;2023-05-14T08:06:04;16.40;99.90
6008;DHT22;3032;49.484;11.112;2023-05-14T08:08:30;16.30;99.90
6008;DHT22;3032;49.484;11.112;2023-05-14T08:10:56;16.40;99.90
6008;DHT22;3032;49.484;11.112;2023-05-14T08:13:21;16.60;99.90
6008;DHT22;3032;49.484;11.112;2023-05-14T08:15:47;16.40;99.90
6008;DHT22;3032;49.484;11.112;2023-05-14T08:18:13;16.00;99.90
6008;DHT22;3032;49.484;11.112;2023-05-14T08:20:38;16.50;99.90
6008;DHT22;3032;49.484;11.112;2023-05-14T08:23:04;16.30;99.90
6008;DHT22;3032;49.484;11.112;2023-05-14T08:25:31;16.20;99.90
6008;DHT22;3032;49.484;11.112;2023-05-14T08:27:57;15.90;99.90
6008;DHT22;3032;49.484;11.112;2023-05-14T08:30:24;16.00;99.90
6008;DHT22;3032;49.484;11.112;2023-05-14T08:32:49;16.40;99.90
6008;DHT22;3032;49.484;11.112;2023-05-14T08:35:16;16.60;99.90
6008;DHT22;3032;49.484;11.112;2023-05-14T08:37:42;16.80;99.90
6008;DHT22;3032;49.484;11.112;2023-05-14T08:40:09;16.70;99.90
6008;DHT22;3032;49.484;11.112;2023-05-14T08:42:37;17.00;99.90
6008;DHT22;3032;49.484;11.112;2023-05-14T08:45:05;17.00;99.90
6008;DHT22;3032;49.484;11.112;2023-05-14T08:47:34;17.20;99.90
6008;DHT22;3032;49.484;11.112;2023-05-14T08:50:02;17.50;99.90
6008;DHT22;3032;49.484;11.112;2023-05-14T08:52:29;17.40;99.90
6008;DHT22;3032;49.484;11.112;2023-05-14T08:54:55;17.00;99.90
6008;DHT22;3032;49.484;11.112;2023-05-14T08:57:22;16.40;99.90
6008;DHT22;3032;49.484;11.112;2023-05-14T08:59:50;16.30;99.90
6008;DHT22;3032;49.484;11.112;2023-05-14T09:02:19;17.10;99.90
6008;DHT22;3032;49.484;11.112;2023-05-14T09:04:46;17.30;99.90
6008;DHT22;3032;49.484;11.112;2023-05-14T09:07:12;17.60;99.90
6008;DHT22;3032;49.484;11.112;2023-05-14T09:09:38;18.00;99.90
6008;DHT22;3032;49.484;11.112;2023-05-14T09:12:05;18.30;99.90
6008;DHT22;3032;49.484;11.112;2023-05-14T09:14:31;18.80;99.90
6008;DHT22;3032;49.484;11.112;2023-05-14T09:16:57;19.30;99.90
6008;DHT22;3032;49.484;11.112;2023-05-14T09:19:23;19.80;99.90
6008;DHT22;3032;49.484;11.112;2023-05-14T09:21:50;20.50;99.90
6008;DHT22;3032;49.484;11.112;2023-05-14T09:24:20;21.20;99.90
6008;DHT22;3032;49.484;11.112;2023-05-14T09:26:49;21.60;99.90
6008;DHT22;3032;49.484;11.112;2023-05-14T09:29:15;22.20;99.90
6008;DHT22;3032;49.484;11.112;2023-05-14T09:31:40;21.70;99.90
6008;DHT22;3032;49.484;11.112;2023-05-14T09:34:06;21.70;99.70
6008;DHT22;3032;49.484;11.112;2023-05-14T09:36:33;21.70;99.50
6008;DHT22;3032;49.484;11.112;2023-05-14T09:38:59;21.90;99.60
6008;DHT22;3032;49.484;11.112;2023-05-14T09:41:25;21.90;99.00
6008;DHT22;3032;49.484;11.112;2023-05-14T09:43:51;22.00;99.10
6008;DHT22;3032;49.484;11.112;2023-05-14T09:46:16;21.90;98.90
6008;DHT22;3032;49.484;11.112;2023-05-14T09:48:42;21.30;99.60
6008;DHT22;3032;49.484;11.112;2023-05-14T09:51:12;20.90;98.80
6008;DHT22;3032;49.484;11.112;2023-05-14T09:53:37;20.10;99.90
6008;DHT22;3032;49.484;11.112;2023-05-14T09:56:04;19.90;99.90
6008;DHT22;3032;49.484;11.112;2023-05-14T09:58:30;19.40;99.90
6008;DHT22;3032;49.484;11.112;2023-05-14T10:00:56;19.50;99.90
6008;DHT22;3032;49.484;11.112;2023-05-14T10:03:24;20.10;99.90
6008;DHT22;3032;49.484;11.112;2023-05-14T10:05:51;20.30;99.90
6008;DHT22;3032;49.484;11.112;2023-05-14T10:08:26;20.30;99.90
6008;DHT22;3032;49.484;11.112;2023-05-14T10:10:57;20.40;99.90
6008;DHT22;3032;49.484;11.112;2023-05-14T10:13:29;20.50;99.90
6008;DHT22;3032;49.484;11.112;2023-05-14T10:16:16;20.50;99.90
6008;DHT22;3032;49.484;11.112;2023-05-14T10:19:07;21.20;99.90
6008;DHT22;3032;49.484;11.112;2023-05-14T10:21:34;21.50;99.20
6008;DHT22;3032;49.484;11.112;2023-05-14T10:24:02;22.50;99.40
6008;DHT22;3032;49.484;11.112;2023-05-14T10:26:30;23.80;97.40
6008;DHT22;3032;49.484;11.112;2023-05-14T10:28:56;24.30;95.70
6008;DHT22;3032;49.484;11.112;2023-05-14T10:31:24;24.70;94.90
6008;DHT22;3032;49.484;11.112;2023-05-14T10:37:01;25.50;93.10
6008;DHT22;3032;49.484;11.112;2023-05-14T10:42:05;26.70;90.80
6008;DHT22;3032;49.484;11.112;2023-05-14T10:44:34;27.10;90.90
6008;DHT22;3032;49.484;11.112;2023-05-14T10:47:00;27.60;89.10
6008;DHT22;3032;49.484;11.112;2023-05-14T10:49:26;28.00;84.20
6008;DHT22;3032;49.484;11.112;2023-05-14T10:51:53;28.10;84.10
6008;DHT22;3032;49.484;11.112;2023-05-14T10:54:18;26.70;85.40
6008;DHT22;3032;49.484;11.112;2023-05-14T10:56:48;26.10;85.50
6008;DHT22;3032;49.484;11.112;2023-05-14T10:59:15;25.80;85.80
6008;DHT22;3032;49.484;11.112;2023-05-14T11:01:42;25.40;85.30
6008;DHT22;3032;49.484;11.112;2023-05-14T11:04:07;25.40;86.40
6008;DHT22;3032;49.484;11.112;2023-05-14T11:06:35;24.50;86.40
6008;DHT22;3032;49.484;11.112;2023-05-14T11:09:03;24.10;86.80
6008;DHT22;3032;49.484;11.112;2023-05-14T11:11:30;22.90;90.30
6008;DHT22;3032;49.484;11.112;2023-05-14T11:13:56;23.40;90.60
6008;DHT22;3032;49.484;11.112;2023-05-14T11:16:21;24.40;90.10
6008;DHT22;3032;49.484;11.112;2023-05-14T11:18:52;25.50;87.30
6008;DHT22;3032;49.484;11.112;2023-05-14T11:21:24;25.30;88.00
6008;DHT22;3032;49.484;11.112;2023-05-14T11:23:50;25.10;87.40
6008;DHT22;3032;49.484;11.112;2023-05-14T11:26:16;24.70;86.50
6008;DHT22;3032;49.484;11.112;2023-05-14T11:28:41;24.70;88.80
6008;DHT22;3032;49.484;11.112;2023-05-14T11:31:08;24.40;87.50
6008;DHT22;3032;49.484;11.112;2023-05-14T11:33:34;24.20;87.60
6008;DHT22;3032;49.484;11.112;2023-05-14T11:36:00;24.20;88.20
6008;DHT22;3032;49.484;11.112;2023-05-14T11:38:26;23.40;88.90
6008;DHT22;3032;49.484;11.112;2023-05-14T11:40:55;23.30;88.20
6008;DHT22;3032;49.484;11.112;2023-05-14T11:43:21;23.30;90.00
6008;DHT22;3032;49.484;11.112;2023-05-14T11:45:51;23.50;89.40
6008;DHT22;3032;49.484;11.112;2023-05-14T11:48:20;22.90;91.00
6008;DHT22;3032;49.484;11.112;2023-05-14T11:50:47;22.80;91.50
6008;DHT22;3032;49.484;11.112;2023-05-14T11:53:29;22.50;91.00
6008;DHT22;3032;49.484;11.112;2023-05-14T11:55:55;22.40;90.30
6008;DHT22;3032;49.484;11.112;2023-05-14T11:58:22;22.10;91.30
6008;DHT22;3032;49.484;11.112;2023-05-14T12:00:52;22.40;91.20
6008;DHT22;3032;49.484;11.112;2023-05-14T12:03:18;21.70;91.60
6008;DHT22;3032;49.484;11.112;2023-05-14T12:06:00;22.20;91.80
6008;DHT22;3032;49.484;11.112;2023-05-14T12:08:28;21.80;92.10
6008;DHT22;3032;49.484;11.112;2023-05-14T12:10:55;21.40;92.50
6008;DHT22;3032;49.484;11.112;2023-05-14T12:13:21;21.10;92.90
6008;DHT22;3032;49.484;11.112;2023-05-14T12:15:54;21.40;92.80
6008;DHT22;3032;49.484;11.112;2023-05-14T12:18:20;21.50;92.50
6008;DHT22;3032;49.484;11.112;2023-05-14T12:20:49;21.90;92.90
6008;DHT22;3032;49.484;11.112;2023-05-14T12:23:16;21.60;92.70
6008;DHT22;3032;49.484;11.112;2023-05-14T12:25:51;21.90;92.40
6008;DHT22;3032;49.484;11.112;2023-05-14T12:28:18;21.50;91.80
6008;DHT22;3032;49.484;11.112;2023-05-14T12:30:44;22.10;92.70
6008;DHT22;3032;49.484;11.112;2023-05-14T12:33:10;22.10;92.00
6008;DHT22;3032;49.484;11.112;2023-05-14T12:35:36;21.90;91.70
6008;DHT22;3032;49.484;11.112;2023-05-14T12:38:02;22.10;92.30
6008;DHT22;3032;49.484;11.112;2023-05-14T12:40:28;22.30;91.80
6008;DHT22;3032;49.484;11.112;2023-05-14T12:42:54;22.50;91.20
6008;DHT22;3032;49.484;11.112;2023-05-14T12:45:19;22.60;91.40
6008;DHT22;3032;49.484;11.112;2023-05-14T12:47:45;22.90;90.70
6008;DHT22;3032;49.484;11.112;2023-05-14T12:50:11;23.30;92.00
6008;DHT22;3032;49.484;11.112;2023-05-14T12:52:36;22.90;90.90
6008;DHT22;3032;49.484;11.112;2023-05-14T12:55:02;22.70;90.40
6008;DHT22;3032;49.484;11.112;2023-05-14T12:57:28;22.00;90.60
6008;DHT22;3032;49.484;11.112;2023-05-14T12:59:55;21.70;92.50
6008;DHT22;3032;49.484;11.112;2023-05-14T13:02:20;22.00;92.10
6008;DHT22;3032;49.484;11.112;2023-05-14T13:04:46;22.40;92.30
6008;DHT22;3032;49.484;11.112;2023-05-14T13:07:12;22.80;91.20
6008;DHT22;3032;49.484;11.112;2023-05-14T13:09:38;22.60;91.50
6008;DHT22;3032;49.484;11.112;2023-05-14T13:12:04;23.10;90.70
6008;DHT22;3032;49.484;11.112;2023-05-14T13:14:29;23.20;91.10
6008;DHT22;3032;49.484;11.112;2023-05-14T13:16:55;23.50;90.10
6008;DHT22;3032;49.484;11.112;2023-05-14T13:19:20;23.10;90.40
6008;DHT22;3032;49.484;11.112;2023-05-14T13:21:46;22.00;91.20
6008;DHT22;3032;49.484;11.112;2023-05-14T13:24:11;22.20;92.00
6008;DHT22;3032;49.484;11.112;2023-05-14T13:26:37;22.30;91.50
6008;DHT22;3032;49.484;11.112;2023-05-14T13:29:03;23.00;90.80
6008;DHT22;3032;49.484;11.112;2023-05-14T13:31:28;23.10;89.30
6008;DHT22;3032;49.484;11.112;2023-05-14T13:33:54;22.50;90.30
6008;DHT22;3032;49.484;11.112;2023-05-14T13:36:22;22.80;90.60
6008;DHT22;3032;49.484;11.112;2023-05-14T13:38:47;23.00;89.00
6008;DHT22;3032;49.484;11.112;2023-05-14T13:41:13;22.80;89.20
6008;DHT22;3032;49.484;11.112;2023-05-14T13:43:39;22.70;88.80
6008;DHT22;3032;49.484;11.112;2023-05-14T13:46:05;22.90;90.30
6008;DHT22;3032;49.484;11.112;2023-05-14T13:48:31;22.60;89.50
6008;DHT22;3032;49.484;11.112;2023-05-14T13:50:57;22.30;90.00
6008;DHT22;3032;49.484;11.112;2023-05-14T13:53:24;22.00;90.20
6008;DHT22;3032;49.484;11.112;2023-05-14T13:55:50;21.90;90.60
6008;DHT22;3032;49.484;11.112;2023-05-14T13:58:21;22.00;91.10
6008;DHT22;3032;49.484;11.112;2023-05-14T14:00:47;22.10;90.40
6008;DHT22;3032;49.484;11.112;2023-05-14T14:03:13;22.60;90.70
6008;DHT22;3032;49.484;11.112;2023-05-14T14:05:38;22.70;90.40
6008;DHT22;3032;49.484;11.112;2023-05-14T14:08:04;23.00;90.10
6008;DHT22;3032;49.484;11.112;2023-05-14T14:10:30;23.00;88.80
6008;DHT22;3032;49.484;11.112;2023-05-14T14:12:56;22.80;88.50
6008;DHT22;3032;49.484;11.112;2023-05-14T14:15:21;22.70;90.20
6008;DHT22;3032;49.484;11.112;2023-05-14T14:17:47;22.50;90.00
6008;DHT22;3032;49.484;11.112;2023-05-14T14:20:13;22.40;90.20
6008;DHT22;3032;49.484;11.112;2023-05-14T14:22:39;22.60;89.80
6008;DHT22;3032;49.484;11.112;2023-05-14T14:25:05;22.80;89.50
6008;DHT22;3032;49.484;11.112;2023-05-14T14:27:32;22.90;89.90
6008;DHT22;3032;49.484;11.112;2023-05-14T14:30:00;23.50;90.10
6008;DHT22;3032;49.484;11.112;2023-05-14T14:32:25;23.80;88.60
6008;DHT22;3032;49.484;11.112;2023-05-14T14:34:51;24.60;87.70
6008;DHT22;3032;49.484;11.112;2023-05-14T14:37:16;24.80;85.90
6008;DHT22;3032;49.484;11.112;2023-05-14T14:39:42;25.10;83.90
6008;DHT22;3032;49.484;11.112;2023-05-14T14:42:07;25.40;84.40
6008;DHT22;3032;49.484;11.112;2023-05-14T14:44:33;25.40;83.10
6008;DHT22;3032;49.484;11.112;2023-05-14T14:46:59;25.20;83.60
6008;DHT22;3032;49.484;11.112;2023-05-14T14:49:24;24.50;83.60
6008;DHT22;3032;49.484;11.112;2023-05-14T14:51:50;24.20;85.20
6008;DHT22;3032;49.484;11.112;2023-05-14T14:54:16;24.10;83.90
6008;DHT22;3032;49.484;11.112;2023-05-14T14:56:41;23.90;87.30
6008;DHT22;3032;49.484;11.112;2023-05-14T14:59:07;23.40;87.60
6008;DHT22;3032;49.484;11.112;2023-05-14T15:01:33;23.00;87.50
6008;DHT22;3032;49.484;11.112;2023-05-14T15:03:58;23.20;88.30
6008;DHT22;3032;49.484;11.112;2023-05-14T15:06:24;23.00;89.10
6008;DHT22;3032;49.484;11.112;2023-05-14T15:08:49;22.70;90.30
6008;DHT22;3032;49.484;11.112;2023-05-14T15:11:15;22.30;89.30
6008;DHT22;3032;49.484;11.112;2023-05-14T15:13:40;22.10;89.80
6008;DHT22;3032;49.484;11.112;2023-05-14T15:16:07;22.10;90.00
6008;DHT22;3032;49.484;11.112;2023-05-14T15:18:32;22.30;88.70
6008;DHT22;3032;49.484;11.112;2023-05-14T15:20:58;22.20;88.80
6008;DHT22;3032;49.484;11.112;2023-05-14T15:23:23;22.10;86.60
6008;DHT22;3032;49.484;11.112;2023-05-14T15:25:49;22.10;87.60
6008;DHT22;3032;49.484;11.112;2023-05-14T15:28:15;22.30;87.90
6008;DHT22;3032;49.484;11.112;2023-05-14T15:30:40;22.00;88.30
6008;DHT22;3032;49.484;11.112;2023-05-14T15:33:09;21.80;88.20
6008;DHT22;3032;49.484;11.112;2023-05-14T15:35:35;21.20;89.00
6008;DHT22;3032;49.484;11.112;2023-05-14T15:38:01;21.50;91.00
6008;DHT22;3032;49.484;11.112;2023-05-14T15:40:26;21.10;90.70
6008;DHT22;3032;49.484;11.112;2023-05-14T15:42:52;21.70;90.40
6008;DHT22;3032;49.484;11.112;2023-05-14T15:45:18;21.80;90.30
6008;DHT22;3032;49.484;11.112;2023-05-14T15:47:43;22.10;90.00
6008;DHT22;3032;49.484;11.112;2023-05-14T15:50:11;22.10;88.90
6008;DHT22;3032;49.484;11.112;2023-05-14T15:52:37;21.90;90.00